»·PEaware :: N1AS KLAX-KSAN

N1AS :: KLAX-KSAN

FLIGHT INFORMATION

Flight Status: Arrived
Operator: Privately registered:
United States
More flights under this callsign
Pilot: Adam S. (8156)
Aircraft: CESSNA T210 TURBO CENTURION
(T210)
More flights by this aircraft type
Origin: KLAX Los Angeles Intl
United States
Destination: KSAN San Diego Intl-Lindbergh
United States
More flights between these airports :: More routes between these airports
Route: +
File this flight plan on PilotEdge
Remarks:
Altitude:
(Current/Filed)
0ft
Speed:
(Current/Filed)
0kts
Departed: 02-Jul-18 07:50 PM
Arrived: 02-Jul-18 08:32 PM
Distance/Time
Traveled:
95nm/0:42
Distance/Time
To Go:
Arrived

Flight Plot

Page will automatically refresh every two minutes.


Map Options




Map Legend


Flown Route
Filed Route
Departure Airport
Arrival Airport
Navaid (VOR, NDB)
Fix

Horizontal Profiles

Position Reports

Time Latitude Longitude Heading Altitude Ground
Speed
02-Jul-18 19:41 33.933539 -118.396958 287 106ft 0kts
02-Jul-18 19:42 33.933539 -118.396958 287 106ft 0kts
02-Jul-18 19:43 33.934601 -118.397432 77 106ft 10kts
02-Jul-18 19:44 33.935008 -118.393866 84 106ft 18kts
02-Jul-18 19:45 33.935637 -118.387808 83 106ft 17kts
02-Jul-18 19:46 33.936197 -118.383016 58 106ft 9kts
02-Jul-18 19:47 33.936484 -118.382775 0 106ft 0kts
02-Jul-18 19:48 33.936484 -118.382775 0 106ft 0kts
02-Jul-18 19:49 33.936495 -118.382775 357 106ft 0kts
02-Jul-18 19:50 33.936116 -118.400310 271 509ft 86kts
02-Jul-18 19:51 33.934797 -118.427577 266 1869ft 87kts
02-Jul-18 19:52 33.929228 -118.463949 240 2461ft 140kts
02-Jul-18 19:53 33.889292 -118.475977 193 2963ft 164kts
02-Jul-18 19:54 33.843034 -118.483864 194 2934ft 182kts
02-Jul-18 19:55 33.797004 -118.491463 189 3364ft 170kts
02-Jul-18 19:56 33.758111 -118.463143 146 3738ft 177kts
02-Jul-18 19:57 33.718321 -118.448129 176 4077ft 170kts
02-Jul-18 19:58 33.687678 -118.408383 120 4592ft 178kts
02-Jul-18 19:59 33.664784 -118.357718 122 5051ft 175kts
02-Jul-18 20:00 33.641864 -118.308244 122 5487ft 177kts
02-Jul-18 20:01 33.617730 -118.256561 122 5489ft 189kts
02-Jul-18 20:02 33.592724 -118.202972 121 5526ft 188kts
02-Jul-18 20:03 33.568298 -118.150627 121 5486ft 186kts
02-Jul-18 20:04 33.543840 -118.098268 121 5484ft 185kts
02-Jul-18 20:05 33.519722 -118.046784 121 5486ft 177kts
02-Jul-18 20:06 33.496381 -117.997037 121 5485ft 175kts
02-Jul-18 20:07 33.473139 -117.947562 121 5488ft 175kts
02-Jul-18 20:08 33.450567 -117.899566 121 5488ft 175kts
02-Jul-18 20:09 33.427367 -117.850314 121 5488ft 175kts
02-Jul-18 20:10 33.412077 -117.817876 121 5498ft 174kts
02-Jul-18 20:11 33.379884 -117.749671 121 5524ft 176kts
02-Jul-18 20:12 33.356523 -117.700405 119 5525ft 181kts
02-Jul-18 20:13 33.326600 -117.654704 137 5510ft 183kts
02-Jul-18 20:14 33.290837 -117.614786 137 5502ft 182kts
02-Jul-18 20:15 33.254873 -117.574424 137 5501ft 183kts
02-Jul-18 20:16 33.219290 -117.534515 137 5506ft 182kts
02-Jul-18 20:17 33.183733 -117.494685 137 5486ft 182kts
02-Jul-18 20:18 33.148549 -117.455319 136 5477ft 179kts
02-Jul-18 20:19 33.113714 -117.416356 137 5479ft 180kts
02-Jul-18 20:20 33.078666 -117.377202 136 5513ft 177kts
02-Jul-18 20:21 33.045519 -117.340243 138 5505ft 177kts
02-Jul-18 20:22 33.007571 -117.308031 148 5512ft 176kts
02-Jul-18 20:23 32.968128 -117.277170 148 5498ft 179kts
02-Jul-18 20:24 32.922339 -117.257398 169 5022ft 190kts
02-Jul-18 20:25 32.874944 -117.246755 169 4567ft 192kts
02-Jul-18 20:26 32.824745 -117.235150 170 3976ft 192kts
02-Jul-18 20:27 32.775245 -117.221782 144 2985ft 193kts
02-Jul-18 20:28 32.750239 -117.171938 107 2064ft 190kts
02-Jul-18 20:29 32.725854 -117.128893 185 1308ft 121kts
02-Jul-18 20:30 32.726062 -117.157918 286 570ft 94kts
02-Jul-18 20:31 32.731491 -117.180959 285 27ft 54kts
02-Jul-18 20:32 32.733208 -117.184311 353 17ft 0kts

Navigation Log

Ident Type
1. KLAX Airport
2. KSAN Airport